Time;durP1;ratioP1;P1;durP2;ratioP2;P2;SDS_P1;SDS_P2;PMS_P1;PMS_P2;Temp;Humidity;BMP_temperature;BMP_pressure;BME280_temperature;BME280_humidity;BME280_pressure;Samples;Min_cycle;Max_cycle;Signal;HPM_P1;HPM_P2
2020/12/21 00:00:50;;;;;;;47.55;17.62;;;;;;;1.03;90.16;101854.69;1751274;80;21645;-75
2020/12/21 00:03:18;;;;;;;33.83;15.03;;;;;;;0.99;90.04;101860.64;1751168;80;21163;-75
2020/12/21 00:05:48;;;;;;;30.82;12.80;;;;;;;0.93;89.98;101857.86;1751104;81;21183;-74
2020/12/21 00:08:15;;;;;;;18.48;9.08;;;;;;;0.87;89.98;101860.67;1751333;81;21665;-74
2020/12/21 00:10:46;;;;;;;25.70;11.50;;;;;;;0.82;90.03;101854.92;1751470;81;21214;-76
2020/12/21 00:13:13;;;;;;;22.13;10.45;;;;;;;0.80;90.21;101851.83;1750611;81;21378;-73
2020/12/21 00:15:43;;;;;;;32.83;10.63;;;;;;;0.79;90.30;101853.97;1749623;82;21241;-73
2020/12/21 00:18:11;;;;;;;24.72;11.38;;;;;;;0.79;90.44;101856.56;1749686;82;21163;-73
2020/12/21 00:20:40;;;;;;;28.42;12.37;;;;;;;0.81;90.38;101853.61;1749626;82;21398;-74
2020/12/21 00:23:08;;;;;;;22.13;11.90;;;;;;;0.81;90.28;101854.90;1749634;82;21175;-74
2020/12/21 00:25:36;;;;;;;21.70;11.22;;;;;;;0.79;90.33;101854.84;1749575;82;21618;-73
2020/12/21 00:28:05;;;;;;;23.38;13.45;;;;;;;0.76;90.34;101852.56;1749637;82;21231;-73
2020/12/21 00:30:33;;;;;;;111.47;26.68;;;;;;;0.76;90.50;101852.16;1749975;81;21567;-73
2020/12/21 00:33:02;;;;;;;40.85;14.98;;;;;;;0.76;90.45;101848.67;1750159;82;21846;-73
2020/12/21 00:35:30;;;;;;;26.68;11.10;;;;;;;0.78;90.34;101849.59;1750302;82;21195;-72
2020/12/21 00:37:58;;;;;;;29.55;13.38;;;;;;;0.81;90.31;101847.12;1750044;80;21610;-73
2020/12/21 00:40:28;;;;;;;21.48;10.68;;;;;;;0.82;90.31;101846.27;1750234;82;21143;-73
2020/12/21 00:42:56;;;;;;;18.82;8.73;;;;;;;0.82;90.24;101842.38;1749739;82;21732;-74
2020/12/21 00:45:24;;;;;;;24.00;10.88;;;;;;;0.80;90.30;101833.67;1749863;82;21159;-73
2020/12/21 00:47:51;;;;;;;26.05;11.97;;;;;;;0.80;90.23;101836.27;1749830;82;21151;-72
2020/12/21 00:50:20;;;;;;;22.22;11.08;;;;;;;0.81;90.10;101840.64;1749812;82;21346;-75
2020/12/21 00:52:48;;;;;;;17.37;8.63;;;;;;;0.81;90.13;101838.05;1749721;82;21606;-73
2020/12/21 00:55:16;;;;;;;17.62;8.43;;;;;;;0.82;90.24;101834.60;1749875;81;21150;-72
2020/12/21 00:57:45;;;;;;;20.15;9.18;;;;;;;0.84;90.32;101835.11;1749601;82;21197;-74
2020/12/21 01:00:13;;;;;;;16.80;9.15;;;;;;;0.87;90.18;101839.50;1749832;80;21201;-75
2020/12/21 01:02:42;;;;;;;20.05;9.58;;;;;;;0.88;90.00;101839.98;1749544;81;21522;-72
2020/12/21 01:05:09;;;;;;;17.60;8.83;;;;;;;0.84;90.06;101836.83;1749471;82;21169;-73
2020/12/21 01:07:37;;;;;;;19.52;9.33;;;;;;;0.82;90.05;101834.60;1749590;82;21194;-76
2020/12/21 01:10:04;;;;;;;21.68;9.30;;;;;;;0.79;90.13;101841.00;1749588;82;21492;-75
2020/12/21 01:12:32;;;;;;;17.60;8.75;;;;;;;0.80;90.20;101833.67;1744976;81;21164;-73
2020/12/21 01:15:01;;;;;;;18.12;8.98;;;;;;;0.83;90.23;101828.59;1721312;83;21205;-73
2020/12/21 01:17:32;;;;;;;16.00;8.75;;;;;;;0.88;90.09;101831.33;1721211;83;21172;-75
2020/12/21 01:20:03;;;;;;;19.05;9.40;;;;;;;0.88;90.05;101835.22;1721230;83;21181;-74
2020/12/21 01:22:30;;;;;;;13.03;7.70;;;;;;;0.86;90.00;101832.57;1721378;82;21663;-76
2020/12/21 01:24:58;;;;;;;21.33;9.58;;;;;;;0.86;90.08;101832.99;1721089;83;21652;-75
2020/12/21 01:27:28;;;;;;;16.40;8.63;;;;;;;0.87;90.11;101831.72;1721594;83;21203;-74
2020/12/21 01:29:56;;;;;;;19.52;9.60;;;;;;;0.91;90.10;101832.70;1721099;81;21221;-74
2020/12/21 01:32:24;;;;;;;13.85;6.78;;;;;;;0.93;89.98;101836.23;1721332;82;21671;-73
2020/12/21 01:34:52;;;;;;;17.32;8.03;;;;;;;0.95;90.03;101835.86;1721132;83;21185;-76
2020/12/21 01:37:19;;;;;;;22.73;9.93;;;;;;;0.96;90.17;101835.88;1721435;82;21735;-76
2020/12/21 01:39:50;;;;;;;23.45;10.30;;;;;;;0.96;90.15;101837.18;1721215;83;21340;-76
2020/12/21 01:42:18;;;;;;;23.67;11.45;;;;;;;0.97;90.19;101838.95;1721496;82;21181;-77
2020/12/21 01:44:49;;;;;;;20.08;10.93;;;;;;;0.99;90.05;101839.89;1721288;83;21185;-77
2020/12/21 01:47:17;;;;;;;19.98;10.38;;;;;;;1.00;89.92;101832.55;1721350;82;21667;-75
2020/12/21 01:49:45;;;;;;;22.00;10.53;;;;;;;0.97;89.91;101829.87;1723769;82;21154;-76
2020/12/21 01:52:17;;;;;;;17.50;9.45;;;;;;;0.92;89.97;101830.17;1722815;83;21395;-75
2020/12/21 01:54:48;;;;;;;21.57;10.38;;;;;;;0.96;90.18;101830.70;1718501;83;21109;-77
2020/12/21 01:57:16;;;;;;;19.35;10.10;;;;;;;0.97;90.07;101831.17;1691442;84;21582;-77
2020/12/21 01:59:45;;;;;;;22.42;9.83;;;;;;;0.95;89.90;101834.14;1662146;86;21168;-76
2020/12/21 02:02:12;;;;;;;19.02;9.30;;;;;;;0.93;89.87;101834.51;1648047;87;21652;-77
2020/12/21 02:04:40;;;;;;;22.17;10.65;;;;;;;0.93;89.98;101834.51;1645162;87;21485;-77
2020/12/21 02:07:08;;;;;;;20.77;10.00;;;;;;;0.93;89.98;101839.70;1690328;84;21217;-76
2020/12/21 02:09:36;;;;;;;19.87;8.73;;;;;;;0.95;90.01;101837.16;1661405;84;21188;-77
2020/12/21 02:12:05;;;;;;;19.55;8.15;;;;;;;0.95;89.92;101826.36;1647357;87;21212;-77
2020/12/21 02:14:33;;;;;;;18.95;10.03;;;;;;;0.97;89.88;101823.81;1670415;85;21142;-77
2020/12/21 02:17:01;;;;;;;19.10;10.45;;;;;;;0.97;89.74;101822.09;1717778;83;22050;-77
2020/12/21 02:19:30;;;;;;;21.17;10.25;;;;;;;0.96;89.69;101821.61;1717692;83;21210;-77
2020/12/21 02:21:57;;;;;;;20.32;10.08;;;;;;;0.96;89.72;101820.75;1717484;83;21637;-76
2020/12/21 02:24:25;;;;;;;18.30;9.25;;;;;;;0.94;89.65;101828.47;1717507;83;21187;-76
2020/12/21 02:26:53;;;;;;;19.30;9.93;;;;;;;0.91;89.78;101823.20;1717581;83;21147;-75
2020/12/21 02:29:20;;;;;;;19.95;10.13;;;;;;;0.93;89.90;101822.83;1717377;83;21745;-76
2020/12/21 02:31:48;;;;;;;18.52;9.28;;;;;;;0.95;89.92;101818.58;1737052;82;21646;-76
2020/12/21 02:34:20;;;;;;;18.77;9.55;;;;;;;0.97;89.91;101822.09;1741968;82;21644;-77
2020/12/21 02:36:47;;;;;;;19.62;9.95;;;;;;;1.00;89.94;101820.88;1741772;82;21418;-78
2020/12/21 02:39:18;;;;;;;10.70;5.70;;;;;;;1.01;89.95;101826.94;1742111;82;22149;-76
2020/12/21 02:41:50;;;;;;;20.37;10.08;;;;;;;1.02;89.97;101823.10;1741930;82;21183;-78
2020/12/21 02:44:18;;;;;;;16.32;8.93;;;;;;;1.05;89.85;101824.91;1741781;82;21182;-77
2020/12/21 02:46:45;;;;;;;14.98;8.45;;;;;;;1.07;89.71;101837.93;1741715;82;21667;-78
2020/12/21 02:49:16;;;;;;;17.73;9.50;;;;;;;1.07;89.70;101835.34;1742572;82;21594;-77
2020/12/21 02:51:45;;;;;;;20.35;9.88;;;;;;;1.08;89.77;101838.38;1742857;82;21183;-78
2020/12/21 02:54:13;;;;;;;20.02;9.58;;;;;;;1.07;89.74;101839.23;1743339;82;21387;-78
2020/12/21 02:56:41;;;;;;;20.45;9.85;;;;;;;1.03;89.70;101841.71;1744049;82;21132;-79
2020/12/21 02:59:09;;;;;;;18.12;9.18;;;;;;;1.07;89.70;101844.42;1743500;82;21155;-78
2020/12/21 03:01:36;;;;;;;22.32;10.78;;;;;;;1.05;89.59;101837.45;1742238;82;21187;-78
2020/12/21 03:04:05;;;;;;;22.93;9.70;;;;;;;1.06;89.49;101843.55;1744006;81;21156;-81
2020/12/21 03:06:33;;;;;;;24.80;10.25;;;;;;;1.05;89.60;101843.94;1746328;82;21263;-81
2020/12/21 03:09:03;;;;;;;22.25;10.63;;;;;;;1.05;89.63;101839.17;1745517;82;21234;-80
2020/12/21 03:11:32;;;;;;;21.75;9.85;;;;;;;1.05;89.59;101846.95;1745673;82;21152;-81
2020/12/21 03:14:01;;;;;;;21.62;10.80;;;;;;;1.03;89.53;101846.91;1744846;82;21100;-80
2020/12/21 03:16:30;;;;;;;21.65;10.23;;;;;;;1.03;89.48;101849.50;1742848;82;21163;-77
2020/12/21 03:19:01;;;;;;;21.55;10.18;;;;;;;1.02;89.50;101845.16;1742559;82;21195;-78
2020/12/21 03:21:30;;;;;;;14.68;6.97;;;;;;;1.02;89.67;101850.34;1744335;82;21611;-79
2020/12/21 03:23:59;;;;;;;17.45;8.33;;;;;;;0.99;89.67;101848.97;1744910;82;21187;-80
2020/12/21 03:26:27;;;;;;;18.80;8.58;;;;;;;0.99;89.82;101848.06;1745071;82;21244;-79
2020/12/21 03:28:55;;;;;;;23.55;10.90;;;;;;;1.00;89.78;101852.01;1746026;82;21187;-79
2020/12/21 03:31:23;;;;;;;27.17;13.00;;;;;;;1.02;89.70;101858.13;1749080;82;21479;-80
2020/12/21 03:33:51;;;;;;;27.37;11.60;;;;;;;1.00;89.75;101854.61;1751150;81;21132;-81
2020/12/21 03:36:19;;;;;;;24.50;11.95;;;;;;;0.97;89.79;101857.55;1750528;81;21175;-79
2020/12/21 03:38:47;;;;;;;26.20;11.75;;;;;;;0.94;89.80;101854.84;1751350;82;21143;-81
2020/12/21 03:41:17;;;;;;;24.87;11.35;;;;;;;0.89;89.79;101855.12;1751856;82;21123;-80
2020/12/21 03:43:45;;;;;;;26.23;11.60;;;;;;;0.89;89.90;101855.12;1751437;82;21786;-80
2020/12/21 03:46:13;;;;;;;34.75;12.75;;;;;;;0.89;89.84;101852.53;1751373;82;21171;-80
2020/12/21 03:48:43;;;;;;;35.92;14.60;;;;;;;0.90;89.90;101847.39;1751745;82;21127;-79
2020/12/21 03:51:15;;;;;;;42.25;16.23;;;;;;;0.89;89.95;101848.21;1751517;81;21171;-80
2020/12/21 03:53:43;;;;;;;39.88;15.53;;;;;;;0.85;89.94;101848.95;1751717;82;21088;-80
2020/12/21 03:56:11;;;;;;;31.12;14.55;;;;;;;0.84;89.99;101851.09;1751802;82;21404;-81
2020/12/21 03:58:40;;;;;;;34.63;14.35;;;;;;;0.84;89.89;101849.80;1751553;80;21163;-81
2020/12/21 04:01:07;;;;;;;31.80;12.45;;;;;;;0.82;89.89;101848.86;1752039;82;21100;-79
2020/12/21 04:03:36;;;;;;;26.33;12.10;;;;;;;0.83;90.08;101841.56;1751906;82;21589;-80
2020/12/21 04:06:05;;;;;;;31.80;12.78;;;;;;;0.84;90.14;101842.89;1752306;82;21143;-80
2020/12/21 04:08:33;;;;;;;29.48;12.58;;;;;;;0.86;90.18;101840.34;1751209;82;21737;-80
2020/12/21 04:11:01;;;;;;;29.95;13.98;;;;;;;0.88;90.17;101846.47;1750855;82;21160;-81
2020/12/21 04:13:30;;;;;;;29.52;12.93;;;;;;;0.92;90.06;101845.73;1750654;82;21307;-81
2020/12/21 04:16:00;;;;;;;29.65;12.40;;;;;;;0.92;90.01;101847.03;1750065;82;21104;-80
2020/12/21 04:18:29;;;;;;;25.08;11.45;;;;;;;0.93;90.08;101846.18;1751689;82;21088;-83
2020/12/21 04:20:57;;;;;;;24.25;11.20;;;;;;;0.92;90.10;101850.92;1750321;82;21666;-79
2020/12/21 04:23:25;;;;;;;23.45;11.53;;;;;;;0.93;90.18;101852.66;1748136;82;21144;-79
2020/12/21 04:25:54;;;;;;;23.12;10.90;;;;;;;0.97;90.07;101857.55;1748333;82;21202;-78
2020/12/21 04:28:22;;;;;;;24.63;10.95;;;;;;;0.97;90.01;101849.34;1748617;82;21767;-78
2020/12/21 04:30:51;;;;;;;23.00;11.12;;;;;;;0.96;89.94;101850.16;1748324;81;21269;-80
2020/12/21 04:33:19;;;;;;;26.97;11.65;;;;;;;0.95;89.91;101847.11;1743594;82;21579;-79
2020/12/21 04:35:48;;;;;;;24.37;12.18;;;;;;;0.92;89.93;101848.33;1739905;82;21179;-79
2020/12/21 04:38:16;;;;;;;24.80;12.33;;;;;;;0.87;89.92;101844.69;1743389;81;21248;-79
2020/12/21 04:40:51;;;;;;;35.80;14.78;;;;;;;0.86;89.86;101844.23;1743201;82;21132;-79
2020/12/21 04:43:19;;;;;;;33.80;13.98;;;;;;;0.84;89.76;101838.13;1745488;82;22198;-80
2020/12/21 04:45:47;;;;;;;30.08;13.88;;;;;;;0.77;89.81;101842.67;1745677;82;21377;-81
2020/12/21 04:48:15;;;;;;;27.45;12.07;;;;;;;0.74;89.98;101838.69;1746683;80;21112;-81
2020/12/21 04:50:43;;;;;;;25.40;13.08;;;;;;;0.72;90.07;101841.23;1742718;82;21191;-78
2020/12/21 04:53:12;;;;;;;29.95;13.13;;;;;;;0.74;90.21;101837.40;1742336;82;21207;-73
2020/12/21 04:55:42;;;;;;;27.70;12.70;;;;;;;0.76;90.10;101840.89;1741954;82;21179;-74
2020/12/21 05:00:19;;;;;;;32.47;13.60;;;;;;;0.83;90.01;101833.36;1873841;75;22641;-65
2020/12/21 05:02:47;;;;;;;33.95;15.08;;;;;;;0.79;90.09;101838.41;1753216;81;21182;-65
2020/12/21 05:05:28;;;;;;;33.85;15.00;;;;;;;0.79;90.09;101839.70;1739075;82;21382;-64
2020/12/21 05:08:23;;;;;;;31.63;15.23;;;;;;;0.80;90.02;101840.16;1844269;76;22734;-64
2020/12/21 05:11:03;;;;;;;27.17;12.20;;;;;;;0.76;90.06;101839.59;1816313;79;21116;-64
2020/12/21 05:13:37;;;;;;;32.13;15.60;;;;;;;0.82;90.14;101841.08;1815140;79;22247;-65
2020/12/21 05:16:06;;;;;;;37.80;16.80;;;;;;;0.80;90.05;101838.86;1748061;82;21230;-65
2020/12/21 05:18:35;;;;;;;33.50;16.93;;;;;;;0.85;90.11;101838.57;1756718;81;21208;-65
2020/12/21 05:21:07;;;;;;;38.60;18.87;;;;;;;0.85;90.15;101833.38;1727923;83;21183;-66
2020/12/21 05:23:35;;;;;;;43.68;20.50;;;;;;;0.86;90.06;101824.79;1727968;82;21170;-65
2020/12/21 05:26:10;;;;;;;60.88;27.98;;;;;;;0.89;89.94;101830.48;1727948;83;22138;-63
2020/12/21 05:28:40;;;;;;;59.73;26.07;;;;;;;0.87;89.66;101830.42;1727543;83;21234;-65
2020/12/21 05:31:09;;;;;;;67.37;29.42;;;;;;;0.82;89.61;101835.90;1727769;83;21195;-63
2020/12/21 05:33:44;;;;;;;61.68;27.30;;;;;;;0.76;89.65;101837.00;1727744;83;21193;-64
2020/12/21 05:36:15;;;;;;;60.50;24.40;;;;;;;0.70;89.73;101836.41;1699093;83;21179;-64
2020/12/21 05:38:47;;;;;;;59.53;25.00;;;;;;;0.67;89.75;101838.02;1727782;83;22748;-64
2020/12/21 05:41:22;;;;;;;;;;;;;;;0.65;89.78;101847.06;1729101;83;21388;-63
2020/12/21 05:43:52;;;;;;;46.85;21.30;;;;;;;0.63;89.82;101850.89;1777543;80;20314;-63
2020/12/21 05:46:24;;;;;;;59.42;25.12;;;;;;;0.59;89.97;101850.33;1777552;80;21195;-63
2020/12/21 05:48:54;;;;;;;39.60;19.12;;;;;;;0.59;90.00;101855.52;1777386;80;21187;-64
2020/12/21 05:51:31;;;;;;;39.00;16.40;;;;;;;0.58;89.93;101857.66;1777894;80;22180;-64
2020/12/21 05:54:01;;;;;;;65.28;26.55;;;;;;;0.58;89.79;101867.16;1777583;80;21583;-64
2020/12/21 05:56:31;;;;;;;;;;;;;;;0.56;89.76;101864.50;1780258;80;21634;-63
2020/12/21 05:58:59;;;;;;;38.02;13.18;;;;;;;0.52;89.77;101869.12;1777419;80;20298;-64
2020/12/21 06:01:27;;;;;;;23.05;11.40;;;;;;;0.48;89.85;101873.73;1777629;79;21186;-64
2020/12/21 06:04:03;;;;;;;24.75;11.00;;;;;;;0.49;89.82;101878.11;1777544;80;21644;-65
2020/12/21 06:06:33;;;;;;;33.30;14.07;;;;;;;0.49;89.75;101883.29;1777286;80;21947;-64
2020/12/21 06:09:04;;;;;;;23.00;10.82;;;;;;;0.50;89.82;101883.73;1777678;80;21207;-66
2020/12/21 06:11:39;;;;;;;22.55;11.40;;;;;;;0.48;89.77;101882.80;1777858;80;21190;-66
2020/12/21 06:14:15;;;;;;;45.05;19.70;;;;;;;0.44;89.75;101883.56;1774085;80;21208;-67
2020/12/21 06:16:43;;;;;;;39.73;17.40;;;;;;;0.42;89.52;101883.92;1773732;80;22224;-65
2020/12/21 06:19:14;;;;;;;81.15;34.25;;;;;;;0.39;89.55;101882.51;1772918;80;21165;-69
2020/12/21 06:21:53;;;;;;;45.35;19.98;;;;;;;0.37;89.67;101884.20;1704481;82;26439;-69
2020/12/21 06:24:24;;;;;;;28.60;14.87;;;;;;;0.34;89.76;101884.08;1707471;82;21193;-68
2020/12/21 06:26:54;;;;;;;23.80;11.33;;;;;;;0.32;89.80;101883.14;1731386;82;21205;-69
2020/12/21 06:29:24;;;;;;;17.32;9.43;;;;;;;0.29;89.84;101885.22;1732714;82;22065;-69
2020/12/21 06:31:57;;;;;;;23.50;11.55;;;;;;;0.30;89.86;101880.91;1733353;82;21209;-68
2020/12/21 06:34:32;;;;;;;26.75;12.65;;;;;;;0.27;89.93;101881.69;1732925;82;21165;-70
2020/12/21 06:37:05;;;;;;;24.72;12.93;;;;;;;0.27;89.99;101886.00;1729817;82;21174;-69
2020/12/21 06:39:34;;;;;;;22.37;11.40;;;;;;;0.26;90.10;101884.26;1733534;82;21165;-68
2020/12/21 06:42:13;;;;;;;23.70;10.70;;;;;;;0.30;90.10;101883.50;1733497;82;21975;-68
2020/12/21 06:44:43;;;;;;;16.67;8.63;;;;;;;0.35;90.06;101884.56;1733669;82;21161;-69
2020/12/21 06:47:14;;;;;;;34.13;15.98;;;;;;;0.36;90.05;101891.48;1705578;82;21205;-69
2020/12/21 06:49:45;;;;;;;;;;;;;;;0.38;90.14;101889.83;1735946;82;21150;-69
2020/12/21 06:52:13;;;;;;;29.37;12.60;;;;;;;0.36;90.19;101890.20;1733510;82;20289;-68
2020/12/21 06:54:44;;;;;;;26.23;11.93;;;;;;;0.33;90.35;101887.09;1733220;82;21376;-69
2020/12/21 06:57:12;;;;;;;27.35;13.50;;;;;;;0.32;90.46;101883.14;1716200;82;21193;-67
2020/12/21 06:59:40;;;;;;;28.62;13.88;;;;;;;0.33;90.50;101892.27;1708194;82;21185;-68
2020/12/21 07:02:08;;;;;;;94.87;29.20;;;;;;;0.33;90.53;101893.99;1703083;82;21245;-68
2020/12/21 07:04:36;;;;;;;34.78;14.73;;;;;;;0.35;90.67;101892.34;1703622;84;21177;-68
2020/12/21 07:07:05;;;;;;;30.68;13.10;;;;;;;0.38;90.90;101888.54;1703837;84;21682;-68
2020/12/21 07:09:36;;;;;;;29.00;13.85;;;;;;;0.43;91.25;101892.58;1703970;84;21163;-69
2020/12/21 07:12:05;;;;;;;31.15;15.03;;;;;;;0.55;91.35;101893.87;1705947;82;27004;-68
2020/12/21 07:14:38;;;;;;;26.00;12.75;;;;;;;0.58;90.71;101886.59;1733445;82;21194;-68
2020/12/21 07:17:12;;;;;;;24.65;10.98;;;;;;;0.58;90.53;101886.17;1733139;81;21229;-67
2020/12/21 07:19:43;;;;;;;25.25;12.37;;;;;;;0.58;90.52;101883.58;1733101;81;21203;-68
2020/12/21 07:22:12;;;;;;;30.08;13.40;;;;;;;0.68;91.06;101882.16;1733122;82;21154;-67
2020/12/21 07:24:41;;;;;;;23.05;11.60;;;;;;;0.75;91.13;101878.91;1733262;82;21216;-66
2020/12/21 07:27:09;;;;;;;26.97;11.53;;;;;;;0.87;91.24;101875.81;1732744;82;21202;-67
2020/12/21 07:29:39;;;;;;;22.02;11.10;;;;;;;0.95;90.73;101883.43;1732897;82;21600;-67
2020/12/21 07:32:07;;;;;;;21.52;11.57;;;;;;;0.96;90.82;101879.98;1733429;82;23594;-67
2020/12/21 07:34:36;;;;;;;20.77;11.30;;;;;;;1.07;91.24;101879.45;1733395;81;21178;-68
2020/12/21 07:37:11;;;;;;;26.60;12.70;;;;;;;1.22;91.10;101886.36;1733806;82;21229;-68
2020/12/21 07:39:40;;;;;;;37.78;17.80;;;;;;;1.35;90.84;101883.30;1733326;82;21281;-67
2020/12/21 07:42:10;;;;;;;101.07;29.60;;;;;;;1.49;90.09;101885.41;1727449;78;21251;-72
2020/12/21 07:44:49;;;;;;;29.00;13.00;;;;;;;1.64;90.43;101887.16;1724324;83;21530;-72
2020/12/21 07:47:30;;;;;;;24.00;13.10;;;;;;;1.78;90.35;101889.70;1705942;83;21207;-72
2020/12/21 07:49:58;;;;;;;22.77;11.88;;;;;;;1.93;89.53;101893.11;1712726;83;21636;-72
2020/12/21 07:52:25;;;;;;;21.20;11.70;;;;;;;1.95;88.97;101893.16;1722405;83;21210;-72
2020/12/21 07:54:53;;;;;;;15.13;9.20;;;;;;;2.05;89.34;101891.28;1753434;81;21172;-72
2020/12/21 07:57:21;;;;;;;19.70;10.25;;;;;;;2.25;89.58;101887.45;1758124;81;21447;-71
2020/12/21 07:59:57;;;;;;;17.65;10.65;;;;;;;2.48;89.06;101879.34;1748174;81;21077;-73
2020/12/21 08:02:26;;;;;;;14.30;7.95;;;;;;;2.56;88.62;101876.52;1745551;82;21619;-73
2020/12/21 08:04:54;;;;;;;18.75;10.70;;;;;;;2.59;87.64;101879.61;1704664;83;21234;-72
2020/12/21 08:07:29;;;;;;;15.48;9.25;;;;;;;2.68;87.88;101876.79;1760250;77;21365;-69
2020/12/21 08:09:58;;;;;;;25.05;13.13;;;;;;;2.82;88.33;101878.41;1698862;83;21726;-67
2020/12/21 08:12:32;;;;;;;23.20;11.80;;;;;;;3.08;88.62;101879.01;1662069;84;21215;-67
2020/12/21 08:15:01;;;;;;;24.72;13.05;;;;;;;3.12;87.03;101881.23;1702014;83;21215;-67
2020/12/21 08:17:30;;;;;;;24.95;13.25;;;;;;;3.06;86.11;101879.39;1679347;84;21178;-69
2020/12/21 08:19:59;;;;;;;18.75;9.00;;;;;;;3.00;85.34;101881.86;1684238;84;21203;-68
2020/12/21 08:22:29;;;;;;;25.12;12.55;;;;;;;2.95;86.01;101884.78;1685678;84;21349;-68
2020/12/21 08:25:11;;;;;;;21.15;11.50;;;;;;;2.93;85.09;101890.38;1697497;79;21245;-75
2020/12/21 08:27:50;;;;;;;23.25;11.88;;;;;;;2.93;85.09;101890.38;1695601;83;21181;-73
2020/12/21 08:30:21;;;;;;;21.82;11.93;;;;;;;2.92;85.41;101888.59;1670596;83;21176;-74
2020/12/21 08:32:52;;;;;;;18.80;10.63;;;;;;;3.10;86.12;101886.40;1694501;82;21199;-73
2020/12/21 08:35:28;;;;;;;19.23;12.03;;;;;;;3.01;83.41;101887.50;1706267;83;21401;-76
2020/12/21 08:38:11;;;;;;;16.95;10.53;;;;;;;2.91;84.58;101893.36;1701111;83;21199;-73
2020/12/21 08:40:38;;;;;;;15.03;9.93;;;;;;;2.95;84.64;101893.89;1706212;83;21406;-72
2020/12/21 08:43:05;;;;;;;19.73;9.73;;;;;;;2.88;84.47;101889.40;1697438;83;21211;-74
2020/12/21 08:45:37;;;;;;;15.20;9.00;;;;;;;2.75;83.97;101883.45;1740726;79;21210;-68
2020/12/21 08:48:06;;;;;;;17.52;10.43;;;;;;;2.75;83.97;101883.45;1758706;81;21206;-68
2020/12/21 08:50:34;;;;;;;16.65;9.58;;;;;;;3.08;84.01;101886.81;1802502;79;21173;-68
2020/12/21 08:53:03;;;;;;;19.85;11.18;;;;;;;3.08;84.01;101886.81;1783020;79;21225;-67
2020/12/21 08:55:30;;;;;;;19.52;11.05;;;;;;;3.00;82.87;101885.76;1787284;80;21150;-69
2020/12/21 08:57:58;;;;;;;17.67;10.78;;;;;;;2.88;84.41;101881.16;1765987;80;21229;-68
2020/12/21 09:00:26;;;;;;;15.43;10.40;;;;;;;2.90;83.63;101883.81;1776910;78;21158;-68
2020/12/21 09:02:55;;;;;;;16.35;10.20;;;;;;;2.84;84.13;101882.36;1777441;80;21181;-69
2020/12/21 09:05:23;;;;;;;18.65;9.43;;;;;;;2.94;84.36;101881.70;1788549;80;21166;-70
2020/12/21 09:07:51;;;;;;;17.48;9.80;;;;;;;2.89;82.53;101883.33;1748176;81;21190;-68
2020/12/21 09:10:19;;;;;;;18.50;9.85;;;;;;;2.86;83.07;101876.77;1763956;80;21210;-68
2020/12/21 09:12:48;;;;;;;17.00;9.15;;;;;;;2.76;82.35;101877.39;1748524;82;21406;-69
2020/12/21 09:15:16;;;;;;;19.42;10.95;;;;;;;2.60;81.93;101878.36;1713035;83;21155;-69
2020/12/21 09:17:44;;;;;;;17.82;10.15;;;;;;;2.48;82.46;101871.53;1764310;81;21160;-69
2020/12/21 09:20:12;;;;;;;16.23;10.48;;;;;;;2.38;83.59;101866.97;1764487;81;21139;-69
2020/12/21 09:22:42;;;;;;;18.50;10.48;;;;;;;2.45;84.57;101868.88;1740509;81;21155;-69
2020/12/21 09:25:10;;;;;;;19.42;10.13;;;;;;;2.45;84.57;101868.88;1761079;81;21187;-69
2020/12/21 09:27:39;;;;;;;16.90;10.38;;;;;;;2.41;82.99;101865.73;1763614;79;21167;-69
2020/12/21 09:30:28;;;;;;;22.75;12.65;;;;;;;2.33;81.68;101867.29;1763549;79;21108;-68
2020/12/21 09:33:14;;;;;;;17.80;10.85;;;;;;;2.31;84.03;101868.54;1764874;79;21233;-73
2020/12/21 09:35:43;;;;;;;38.95;23.20;;;;;;;2.38;82.83;101865.24;1744147;81;21188;-72
2020/12/21 09:38:10;;;;;;;17.35;9.23;;;;;;;2.35;82.71;101866.88;1762517;80;21205;-71
2020/12/21 09:40:38;;;;;;;32.90;18.05;;;;;;;2.35;82.71;101866.88;1747173;80;21684;-73
2020/12/21 09:43:06;;;;;;;23.92;12.30;;;;;;;2.38;83.91;101860.05;1755801;80;21159;-75
2020/12/21 09:45:35;;;;;;;19.50;11.15;;;;;;;2.55;85.24;101865.64;1756260;80;21608;-76
2020/12/21 09:48:03;;;;;;;27.62;15.85;;;;;;;2.80;85.21;101855.80;1770675;79;22169;-71
2020/12/21 09:50:33;;;;;;;19.95;10.60;;;;;;;3.01;84.72;101860.17;1789549;79;21151;-70
2020/12/21 09:53:01;;;;;;;17.00;10.43;;;;;;;3.14;84.04;101841.38;1772075;79;21195;-70
2020/12/21 09:55:29;;;;;;;31.60;16.67;;;;;;;3.34;83.61;101840.91;1815645;77;21148;-69
2020/12/21 09:57:58;;;;;;;25.77;13.95;;;;;;;3.39;82.27;101835.37;1821811;77;21190;-70
2020/12/21 10:00:28;;;;;;;35.20;19.65;;;;;;;3.17;79.22;101835.77;1816289;78;21222;-69
2020/12/21 10:02:56;;;;;;;18.65;10.55;;;;;;;2.93;81.09;101839.63;1807502;78;22377;-70
2020/12/21 10:05:24;;;;;;;22.93;12.23;;;;;;;2.95;82.47;101832.73;1762653;80;21138;-70
2020/12/21 10:07:52;;;;;;;22.30;11.93;;;;;;;2.94;81.08;101836.16;1759437;81;21190;-70
2020/12/21 10:10:20;;;;;;;28.50;15.83;;;;;;;2.89;82.30;101836.49;1759314;80;21245;-69
2020/12/21 10:12:50;;;;;;;30.62;16.25;;;;;;;2.93;81.80;101840.92;1759452;81;21150;-70
2020/12/21 10:15:17;;;;;;;25.27;12.30;;;;;;;2.91;81.70;101837.41;1759654;81;22311;-71
2020/12/21 10:17:45;;;;;;;21.85;12.75;;;;;;;2.90;81.47;101834.36;1759301;81;21282;-69
2020/12/21 10:20:13;;;;;;;30.70;15.15;;;;;;;2.92;81.67;101843.05;1759595;80;21216;-68
2020/12/21 10:22:42;;;;;;;21.50;10.80;;;;;;;2.99;82.64;101839.77;1759163;81;21229;-71
2020/12/21 10:25:11;;;;;;;23.22;13.00;;;;;;;3.05;82.40;101846.38;1758488;81;21674;-69
2020/12/21 10:27:40;;;;;;;23.92;13.08;;;;;;;3.02;81.40;101838.95;1759063;81;22257;-70
2020/12/21 10:30:08;;;;;;;40.63;22.93;;;;;;;2.67;80.58;101841.23;1759340;81;21155;-70
2020/12/21 10:32:35;;;;;;;29.48;16.67;;;;;;;2.67;80.58;101841.23;1759634;81;21566;-71
2020/12/21 10:35:03;;;;;;;40.48;21.10;;;;;;;2.53;80.77;101846.51;1753493;80;21206;-71
2020/12/21 10:37:31;;;;;;;25.97;13.18;;;;;;;2.51;80.71;101848.23;1759882;80;21118;-70
2020/12/21 10:39:59;;;;;;;41.92;21.82;;;;;;;2.43;79.79;101834.15;1757707;80;21456;-69
2020/12/21 10:42:26;;;;;;;29.63;15.68;;;;;;;2.70;80.99;101835.22;1768675;80;21734;-70
2020/12/21 10:45:05;;;;;;;34.27;18.00;;;;;;;2.70;80.99;101835.22;1771033;80;21166;-70
2020/12/21 10:47:33;;;;;;;27.40;14.07;;;;;;;2.73;80.71;101836.57;1761958;80;21191;-77
2020/12/21 10:50:01;;;;;;;25.90;13.10;;;;;;;2.81;81.85;101828.96;1816353;77;21470;-73
2020/12/21 10:52:30;;;;;;;23.73;13.30;;;;;;;2.80;82.26;101829.78;1766935;79;21378;-73
2020/12/21 10:54:58;;;;;;;42.45;20.75;;;;;;;2.76;78.90;101834.45;1820409;78;22001;-73
2020/12/21 10:57:26;;;;;;;32.48;16.62;;;;;;;2.52;78.80;101835.23;1822711;78;21186;-73
2020/12/21 10:59:53;;;;;;;34.83;16.60;;;;;;;2.30;78.93;101829.97;1821771;78;21625;-74
2020/12/21 11:02:23;;;;;;;38.38;18.73;;;;;;;2.07;78.72;101831.10;1785609;78;21094;-68
2020/12/21 11:04:50;;;;;;;38.80;19.20;;;;;;;1.92;79.21;101834.63;1805149;79;21204;-68
2020/12/21 11:07:18;;;;;;;60.35;28.83;;;;;;;1.84;79.63;101832.72;1791293;79;21205;-68
2020/12/21 11:09:47;;;;;;;53.05;24.50;;;;;;;1.73;79.79;101835.45;1804780;79;21093;-68
2020/12/21 11:12:15;;;;;;;46.20;21.57;;;;;;;1.54;80.01;101830.20;1803410;79;21159;-68
2020/12/21 11:14:43;;;;;;;47.43;18.67;;;;;;;1.41;80.46;101839.34;1801430;79;21139;-68
2020/12/21 11:17:11;;;;;;;43.05;21.52;;;;;;;1.35;81.14;101837.87;1800450;79;21375;-66
2020/12/21 11:19:39;;;;;;;43.45;20.55;;;;;;;1.33;81.40;101835.64;1801629;79;21127;-67
2020/12/21 11:22:07;;;;;;;40.90;18.75;;;;;;;1.31;81.71;101835.14;1801608;79;21228;-69
2020/12/21 11:24:35;;;;;;;60.52;28.27;;;;;;;1.29;81.78;101840.70;1800577;79;22215;-67
2020/12/21 11:27:03;;;;;;;47.45;22.20;;;;;;;1.27;81.94;101835.50;1799903;79;21121;-67
2020/12/21 11:29:30;;;;;;;42.55;19.17;;;;;;;1.23;82.04;101836.23;1800188;78;21374;-69
2020/12/21 11:32:02;;;;;;;41.50;17.92;;;;;;;1.25;82.26;101835.44;1798535;79;21223;-69